createdAt,value
2023-02-06T00:00:38.158Z,0.90
2023-02-06T00:03:05.745Z,0.90
2023-02-06T00:05:32.909Z,0.90
2023-02-06T00:07:59.891Z,0.90
2023-02-06T00:10:26.922Z,0.90
2023-02-06T00:12:53.722Z,0.90
2023-02-06T00:15:20.467Z,0.90
2023-02-06T00:17:47.153Z,0.90
2023-02-06T00:20:14.128Z,0.90
2023-02-06T00:22:41.144Z,1.00
2023-02-06T00:25:08.039Z,0.90
2023-02-06T00:27:35.082Z,0.90
2023-02-06T00:30:02.125Z,0.90
2023-02-06T00:32:28.855Z,0.90
2023-02-06T00:34:55.470Z,0.90
2023-02-06T00:37:22.163Z,0.90
2023-02-06T00:39:48.828Z,0.90
2023-02-06T00:42:15.458Z,0.80
2023-02-06T00:44:42.066Z,0.80
2023-02-06T00:47:08.792Z,0.80
2023-02-06T00:49:35.500Z,0.80
2023-02-06T00:52:02.148Z,0.80
2023-02-06T00:54:28.836Z,0.80
2023-02-06T00:56:56.767Z,0.80
2023-02-06T00:59:23.334Z,0.80
2023-02-06T01:01:50.071Z,0.80
2023-02-06T01:04:16.791Z,0.80
2023-02-06T01:06:43.431Z,0.70
2023-02-06T01:09:10.211Z,0.70
2023-02-06T01:11:36.827Z,0.70
2023-02-06T01:14:03.603Z,0.70
2023-02-06T01:16:30.179Z,0.70
2023-02-06T01:18:56.827Z,0.70
2023-02-06T01:21:24.134Z,0.70
2023-02-06T01:23:53.284Z,0.70
2023-02-06T01:26:23.002Z,0.70
2023-02-06T01:28:50.135Z,0.70
2023-02-06T01:31:19.916Z,0.70
2023-02-06T01:33:48.445Z,0.70
2023-02-06T01:36:16.255Z,0.70
2023-02-06T01:38:43.344Z,0.70
2023-02-06T01:41:11.936Z,0.70
2023-02-06T01:43:42.012Z,0.70
2023-02-06T01:46:09.028Z,0.70
2023-02-06T01:48:41.526Z,0.70
2023-02-06T01:51:18.134Z,0.70
2023-02-06T01:53:48.627Z,0.70
2023-02-06T01:56:19.636Z,0.70
2023-02-06T01:58:51.041Z,0.70
2023-02-06T02:01:18.603Z,0.70
2023-02-06T02:03:48.851Z,0.60
2023-02-06T02:06:20.682Z,0.60
2023-02-06T02:08:50.422Z,0.60
2023-02-06T02:11:28.293Z,0.60
2023-02-06T02:13:56.503Z,0.60
2023-02-06T02:16:32.403Z,0.60
2023-02-06T02:19:16.916Z,0.60
2023-02-06T02:21:51.997Z,0.60
2023-02-06T02:24:25.288Z,0.60
2023-02-06T02:27:15.006Z,0.60
2023-02-06T02:29:57.641Z,0.60
2023-02-06T02:32:38.837Z,0.60
2023-02-06T02:35:15.596Z,0.60
2023-02-06T02:37:58.340Z,0.60
2023-02-06T02:40:37.595Z,0.60
2023-02-06T02:43:08.895Z,0.60
2023-02-06T02:46:22.570Z,0.60
2023-02-06T02:48:54.495Z,0.60
2023-02-06T02:51:21.883Z,0.60
2023-02-06T02:53:48.675Z,0.60
2023-02-06T02:56:23.002Z,0.60
2023-02-06T02:58:55.990Z,0.60
2023-02-06T03:01:31.997Z,0.60
2023-02-06T03:04:07.928Z,0.60
2023-02-06T03:07:03.215Z,0.60
2023-02-06T03:09:46.021Z,0.60
2023-02-06T03:12:17.976Z,0.60
2023-02-06T03:14:55.046Z,0.60
2023-02-06T03:17:33.075Z,0.60
2023-02-06T03:20:02.374Z,0.60
2023-02-06T03:22:30.594Z,0.60
2023-02-06T03:24:58.759Z,0.60
2023-02-06T03:27:27.025Z,0.60
2023-02-06T03:29:55.997Z,0.60
2023-02-06T03:32:36.082Z,0.60
2023-02-06T03:35:25.640Z,0.60
2023-02-06T03:37:52.888Z,0.60
2023-02-06T03:40:20.220Z,0.60
2023-02-06T03:42:53.435Z,0.60
2023-02-06T03:45:27.066Z,0.50
2023-02-06T03:47:55.960Z,0.60
2023-02-06T03:50:24.339Z,0.50
2023-02-06T03:52:51.705Z,0.60
2023-02-06T03:55:21.229Z,0.50
2023-02-06T03:57:56.119Z,0.50
2023-02-06T04:00:23.425Z,0.50
2023-02-06T04:02:52.265Z,0.50
2023-02-06T04:05:19.960Z,0.50
2023-02-06T04:07:46.661Z,0.60
2023-02-06T04:10:13.336Z,0.60
2023-02-06T04:12:40.020Z,0.60
2023-02-06T04:15:06.778Z,0.50
2023-02-06T04:17:49.829Z,0.50
2023-02-06T04:20:20.751Z,0.50
2023-02-06T04:22:47.527Z,0.50
2023-02-06T04:25:14.623Z,0.50
2023-02-06T04:27:41.232Z,0.50
2023-02-06T04:30:08.426Z,0.50
2023-02-06T04:32:35.166Z,0.40
2023-02-06T04:35:01.855Z,0.40
2023-02-06T04:37:28.557Z,0.40
2023-02-06T04:39:55.122Z,0.40
2023-02-06T04:42:21.793Z,0.40
2023-02-06T04:44:48.352Z,0.40
2023-02-06T04:47:14.997Z,0.40
2023-02-06T04:49:41.558Z,0.40
2023-02-06T04:52:08.257Z,0.40
2023-02-06T04:54:34.845Z,0.40
2023-02-06T04:57:01.547Z,0.40
2023-02-06T04:59:28.185Z,0.40
2023-02-06T05:01:54.781Z,0.40
2023-02-06T05:04:21.420Z,0.40
2023-02-06T05:06:48.014Z,0.50
2023-02-06T05:09:15.458Z,0.40
2023-02-06T05:11:42.119Z,0.40
2023-02-06T05:14:08.686Z,0.40
2023-02-06T05:16:35.354Z,0.40
2023-02-06T05:19:01.952Z,0.40
2023-02-06T05:21:28.703Z,0.40
2023-02-06T05:23:55.265Z,0.40
2023-02-06T05:26:21.972Z,0.40
2023-02-06T05:28:48.533Z,0.40
2023-02-06T05:31:19.568Z,0.40
2023-02-06T05:33:50.417Z,0.40
2023-02-06T05:36:19.917Z,0.40
2023-02-06T05:38:47.227Z,0.30
2023-02-06T05:41:14.211Z,0.40
2023-02-06T05:43:41.050Z,0.30
2023-02-06T05:46:07.909Z,0.40
2023-02-06T05:48:35.163Z,0.40
2023-02-06T05:51:02.262Z,0.40
2023-02-06T05:53:28.889Z,0.40
2023-02-06T05:55:55.791Z,0.40
2023-02-06T05:58:22.475Z,0.40
2023-02-06T06:00:49.045Z,0.40
2023-02-06T06:03:15.716Z,0.40
2023-02-06T06:05:42.305Z,0.40
2023-02-06T06:08:08.956Z,0.40
2023-02-06T06:10:35.523Z,0.40
2023-02-06T06:13:02.449Z,0.40
2023-02-06T06:15:29.079Z,0.40
2023-02-06T06:17:55.695Z,0.50
2023-02-06T06:20:22.767Z,0.50
2023-02-06T06:22:49.470Z,0.50
2023-02-06T06:25:16.086Z,0.50
2023-02-06T06:27:42.820Z,0.50
2023-02-06T06:30:09.931Z,0.40
2023-02-06T06:32:37.004Z,0.40
2023-02-06T06:35:03.844Z,0.50
2023-02-06T06:37:30.554Z,0.50
2023-02-06T06:39:57.128Z,0.50
2023-02-06T06:42:23.783Z,0.60
2023-02-06T06:44:50.338Z,0.60
2023-02-06T06:47:16.988Z,0.60
2023-02-06T06:49:43.659Z,0.60
2023-02-06T06:52:23.050Z,0.60
2023-02-06T06:54:52.294Z,0.50
2023-02-06T06:57:19.762Z,0.60
2023-02-06T06:59:46.494Z,0.50
2023-02-06T07:02:13.390Z,0.60
2023-02-06T07:04:40.150Z,0.60
2023-02-06T07:07:07.124Z,0.60
2023-02-06T07:09:33.947Z,0.60
2023-02-06T07:12:00.774Z,0.60
2023-02-06T07:14:27.449Z,0.60
2023-02-06T07:16:56.081Z,0.60
2023-02-06T07:19:22.872Z,0.60
2023-02-06T07:21:49.713Z,0.60
2023-02-06T07:24:16.329Z,0.60
2023-02-06T07:26:43.274Z,0.60
2023-02-06T07:29:10.003Z,0.60
2023-02-06T07:31:36.661Z,0.60
2023-02-06T07:34:03.417Z,0.60
2023-02-06T07:36:30.196Z,0.60
2023-02-06T07:38:56.762Z,0.60
2023-02-06T07:41:23.488Z,0.70
2023-02-06T07:43:50.047Z,0.70
2023-02-06T07:46:16.872Z,0.60
2023-02-06T07:48:43.619Z,0.70
2023-02-06T07:51:10.242Z,0.60
2023-02-06T07:53:37.569Z,0.60
2023-02-06T07:56:15.684Z,0.60
2023-02-06T07:58:42.875Z,0.60
2023-02-06T08:01:09.882Z,0.60
2023-02-06T08:03:36.853Z,0.60
2023-02-06T08:06:14.809Z,0.60
2023-02-06T08:08:42.735Z,0.60
2023-02-06T08:11:15.589Z,0.60
2023-02-06T08:13:43.154Z,0.50
2023-02-06T08:16:15.203Z,0.50
2023-02-06T08:18:42.435Z,0.50
2023-02-06T08:21:15.922Z,0.50
2023-02-06T08:23:43.559Z,0.50
2023-02-06T08:26:15.535Z,0.40
2023-02-06T08:28:43.444Z,0.40
2023-02-06T08:31:13.881Z,0.40
2023-02-06T08:33:41.081Z,0.50
2023-02-06T08:36:08.582Z,0.50
2023-02-06T08:38:36.136Z,0.50
2023-02-06T08:41:02.960Z,0.50
2023-02-06T08:43:31.129Z,0.50
2023-02-06T08:45:59.502Z,0.50
2023-02-06T08:48:27.020Z,0.50
2023-02-06T08:51:05.047Z,0.50
2023-02-06T08:53:31.957Z,0.50
2023-02-06T08:56:00.679Z,0.40
2023-02-06T08:58:28.042Z,0.50
2023-02-06T09:00:54.703Z,0.50
2023-02-06T09:03:22.704Z,0.50
2023-02-06T09:05:50.824Z,0.40
2023-02-06T09:08:17.536Z,0.40
2023-02-06T09:10:44.109Z,0.40
2023-02-06T09:13:10.864Z,0.50
2023-02-06T09:15:37.940Z,0.40
2023-02-06T09:18:04.900Z,0.40
2023-02-06T09:20:31.531Z,0.30
2023-02-06T09:22:58.410Z,0.30
2023-02-06T09:25:25.114Z,0.30
2023-02-06T09:27:51.730Z,0.30
2023-02-06T09:30:18.387Z,0.30
2023-02-06T09:32:45.019Z,0.30
2023-02-06T09:35:11.670Z,0.30
2023-02-06T09:37:38.494Z,0.20
2023-02-06T09:40:05.597Z,0.30
2023-02-06T09:42:36.568Z,0.30
2023-02-06T09:45:11.822Z,0.20
2023-02-06T09:47:52.332Z,0.20
2023-02-06T09:50:39.626Z,0.30
2023-02-06T09:53:30.465Z,0.30
2023-02-06T09:56:09.214Z,0.30
2023-02-06T09:58:52.950Z,0.30
2023-02-06T10:01:34.619Z,0.30
2023-02-06T10:04:12.985Z,0.30
2023-02-06T10:06:42.687Z,0.30
2023-02-06T10:09:25.862Z,0.30
2023-02-06T10:12:10.618Z,0.30
2023-02-06T10:15:01.228Z,0.40
2023-02-06T10:18:04.547Z,0.40
2023-02-06T10:20:40.949Z,0.40
2023-02-06T10:23:32.217Z,0.40
2023-02-06T10:26:12.177Z,0.40
2023-02-06T10:28:40.649Z,0.40
2023-02-06T10:31:25.581Z,0.40
2023-02-06T10:34:07.287Z,0.40
2023-02-06T10:37:02.078Z,0.40
2023-02-06T10:39:49.896Z,0.50
2023-02-06T10:42:22.930Z,0.40
2023-02-06T10:45:06.623Z,0.50
2023-02-06T10:47:50.745Z,0.50
2023-02-06T10:50:39.463Z,0.50
2023-02-06T10:53:27.657Z,0.50
2023-02-06T10:56:00.624Z,0.50
2023-02-06T10:58:44.436Z,0.50
2023-02-06T11:01:25.089Z,0.50
2023-02-06T11:04:18.785Z,0.50
2023-02-06T11:06:46.843Z,0.50
2023-02-06T11:09:14.500Z,0.50
2023-02-06T11:11:48.545Z,0.60
2023-02-06T11:14:17.519Z,0.50
2023-02-06T11:16:45.897Z,0.50
2023-02-06T11:19:31.704Z,0.50
2023-02-06T11:22:07.275Z,0.60
2023-02-06T11:24:34.854Z,0.60
2023-02-06T11:27:11.629Z,0.60
2023-02-06T11:29:45.291Z,0.60
2023-02-06T11:32:36.429Z,0.70
2023-02-06T11:35:07.535Z,0.70
2023-02-06T11:37:39.979Z,0.70
2023-02-06T11:40:19.060Z,0.70
2023-02-06T11:43:12.096Z,0.70
2023-02-06T11:45:40.909Z,0.70
2023-02-06T11:48:31.452Z,0.70
2023-02-06T11:50:58.467Z,0.70
2023-02-06T11:53:25.126Z,0.70
2023-02-06T11:56:03.054Z,0.70
2023-02-06T11:58:30.987Z,0.80
2023-02-06T12:01:06.910Z,0.80
2023-02-06T12:03:35.308Z,0.80
2023-02-06T12:06:30.473Z,0.90
2023-02-06T12:08:59.624Z,0.90
2023-02-06T12:11:35.716Z,0.90
2023-02-06T12:14:12.831Z,1.00
2023-02-06T12:16:43.156Z,1.00
2023-02-06T12:19:16.863Z,1.00
2023-02-06T12:22:02.106Z,1.00
2023-02-06T12:24:35.018Z,1.00
2023-02-06T12:27:39.240Z,1.00
2023-02-06T12:30:25.127Z,1.00
2023-02-06T12:32:59.669Z,1.00
2023-02-06T12:35:46.013Z,0.90
2023-02-06T12:38:25.262Z,0.90
2023-02-06T12:41:19.970Z,0.90
2023-02-06T12:43:55.021Z,0.90
2023-02-06T12:46:27.119Z,0.90
2023-02-06T12:49:01.696Z,1.00
2023-02-06T12:51:40.301Z,1.00
2023-02-06T12:54:19.410Z,1.00
2023-02-06T12:56:50.923Z,1.10
2023-02-06T12:59:41.615Z,1.00
2023-02-06T13:02:48.163Z,1.10
2023-02-06T13:05:27.898Z,1.10
2023-02-06T13:08:02.294Z,1.10
2023-02-06T13:10:28.996Z,1.10
2023-02-06T13:12:59.099Z,1.10
2023-02-06T13:15:35.350Z,1.10
2023-02-06T13:18:02.331Z,1.10
2023-02-06T13:20:29.144Z,1.00
2023-02-06T13:23:14.443Z,1.00
2023-02-06T13:25:41.103Z,1.00
2023-02-06T13:28:23.006Z,1.00
2023-02-06T13:31:00.720Z,1.00
2023-02-06T13:33:43.514Z,1.00
2023-02-06T13:36:18.427Z,1.00
2023-02-06T13:38:45.128Z,1.00
2023-02-06T13:41:14.953Z,1.00
2023-02-06T13:43:56.560Z,1.00
2023-02-06T13:46:44.161Z,1.00
2023-02-06T13:49:29.118Z,1.00
2023-02-06T13:52:16.949Z,0.90
2023-02-06T13:54:52.696Z,0.90
2023-02-06T13:57:28.892Z,0.90
2023-02-06T14:00:01.914Z,0.90
2023-02-06T14:02:46.577Z,0.80
2023-02-06T14:05:18.839Z,0.80
2023-02-06T14:07:57.478Z,0.70
2023-02-06T14:10:44.742Z,0.70
2023-02-06T14:13:17.392Z,0.70
2023-02-06T14:16:03.641Z,0.70
2023-02-06T14:19:01.004Z,0.70
2023-02-06T14:21:30.691Z,0.70
2023-02-06T14:24:27.571Z,0.60
2023-02-06T14:27:13.276Z,0.60
2023-02-06T14:29:45.343Z,0.50
2023-02-06T14:32:28.429Z,0.50
2023-02-06T14:35:05.343Z,0.50
2023-02-06T14:37:41.611Z,0.40
2023-02-06T14:40:22.580Z,0.40
2023-02-06T14:42:52.012Z,0.30
2023-02-06T14:45:18.581Z,0.30
2023-02-06T14:47:46.071Z,0.30
2023-02-06T14:50:20.712Z,0.30
2023-02-06T14:52:53.431Z,0.20
2023-02-06T14:55:37.045Z,0.20
2023-02-06T14:58:06.803Z,0.20
2023-02-06T15:00:33.781Z,0.10
2023-02-06T15:03:13.979Z,0.10
2023-02-06T15:05:40.954Z,0.10
2023-02-06T15:08:08.286Z,0.10
2023-02-06T15:10:37.401Z,0.10
2023-02-06T15:13:05.207Z,0.00
2023-02-06T15:15:34.070Z,0.00
2023-02-06T15:18:02.434Z,0.00
2023-02-06T15:20:34.576Z,-0.10
2023-02-06T15:23:17.616Z,-0.10
2023-02-06T15:25:58.832Z,-0.10
2023-02-06T15:28:29.204Z,-0.10
2023-02-06T15:30:57.466Z,-0.20
2023-02-06T15:33:27.772Z,-0.20
2023-02-06T15:35:56.782Z,-0.20
2023-02-06T15:38:26.074Z,-0.20
2023-02-06T15:40:57.815Z,-0.20
2023-02-06T15:43:26.570Z,-0.20
2023-02-06T15:46:02.272Z,-0.20
2023-02-06T15:48:40.276Z,-0.20
2023-02-06T15:51:07.676Z,-0.20
2023-02-06T15:53:35.677Z,-0.30
2023-02-06T15:56:07.879Z,-0.30
2023-02-06T15:58:35.251Z,-0.40
2023-02-06T16:01:03.053Z,-0.40
2023-02-06T16:03:31.076Z,-0.50
2023-02-06T16:05:58.165Z,-0.50
2023-02-06T16:08:31.948Z,-0.50
2023-02-06T16:11:30.353Z,-0.50
2023-02-06T16:13:57.360Z,-0.40
2023-02-06T16:16:26.061Z,-0.40
2023-02-06T16:18:54.739Z,-0.40
2023-02-06T16:21:30.358Z,-0.40
2023-02-06T16:24:00.123Z,-0.40
2023-02-06T16:26:29.780Z,-0.50
2023-02-06T16:29:03.440Z,-0.50
2023-02-06T16:31:33.821Z,-0.50
2023-02-06T16:34:03.077Z,-0.50
2023-02-06T16:36:32.390Z,-0.50
2023-02-06T16:39:04.109Z,-0.50
2023-02-06T16:41:39.694Z,-0.60
2023-02-06T16:44:14.869Z,-0.60
2023-02-06T16:46:41.967Z,-0.60
2023-02-06T16:49:19.274Z,-0.60
2023-02-06T16:51:47.253Z,-0.60
2023-02-06T16:54:27.071Z,-0.60
2023-02-06T16:56:55.616Z,-0.60
2023-02-06T16:59:22.471Z,-0.60
2023-02-06T17:01:49.224Z,-0.70
2023-02-06T17:04:15.818Z,-0.70
2023-02-06T17:06:42.629Z,-0.70
2023-02-06T17:09:12.893Z,-0.70
2023-02-06T17:11:39.592Z,-0.80
2023-02-06T17:14:06.294Z,-0.80
2023-02-06T17:16:33.697Z,-0.80
2023-02-06T17:19:00.429Z,-0.80
2023-02-06T17:21:29.756Z,-0.80
2023-02-06T17:23:56.426Z,-0.80
2023-02-06T17:26:23.678Z,-0.80
2023-02-06T17:28:50.763Z,-0.80
2023-02-06T17:31:18.597Z,-0.80
2023-02-06T17:33:45.461Z,-0.80
2023-02-06T17:36:19.046Z,-0.90
2023-02-06T17:38:45.816Z,-0.90
2023-02-06T17:41:12.532Z,-0.90
2023-02-06T17:43:39.124Z,-0.90
2023-02-06T17:46:06.426Z,-0.90
2023-02-06T17:48:36.630Z,-1.00
2023-02-06T17:51:05.066Z,-1.00
2023-02-06T17:53:31.734Z,-1.00
2023-02-06T17:56:14.678Z,-1.00
2023-02-06T17:58:42.436Z,-1.00
2023-02-06T18:01:20.961Z,-1.00
2023-02-06T18:03:48.553Z,-1.00
2023-02-06T18:06:15.282Z,-1.00
2023-02-06T18:08:42.796Z,-1.00
2023-02-06T18:11:11.832Z,-1.00
2023-02-06T18:13:39.638Z,-1.10
2023-02-06T18:16:07.219Z,-1.10
2023-02-06T18:18:34.100Z,-1.10
2023-02-06T18:21:00.914Z,-1.10
2023-02-06T18:23:27.586Z,-1.10
2023-02-06T18:25:54.194Z,-1.20
2023-02-06T18:28:20.921Z,-1.20
2023-02-06T18:30:47.775Z,-1.20
2023-02-06T18:33:14.468Z,-1.20
2023-02-06T18:35:41.920Z,-1.20
2023-02-06T18:38:09.925Z,-1.20
2023-02-06T18:40:41.521Z,-1.30
2023-02-06T18:43:08.559Z,-1.30
2023-02-06T18:45:38.337Z,-1.30
2023-02-06T18:48:08.201Z,-1.30
2023-02-06T18:50:36.205Z,-1.30
2023-02-06T18:53:03.416Z,-1.30
2023-02-06T18:55:31.360Z,-1.30
2023-02-06T18:57:58.048Z,-1.40
2023-02-06T19:00:25.011Z,-1.40
2023-02-06T19:02:51.992Z,-1.40
2023-02-06T19:05:19.578Z,-1.40
2023-02-06T19:07:53.171Z,-1.40
2023-02-06T19:10:21.034Z,-1.40
2023-02-06T19:12:48.137Z,-1.40
2023-02-06T19:15:15.447Z,-1.40
2023-02-06T19:17:42.461Z,-1.40
2023-02-06T19:20:10.619Z,-1.40
2023-02-06T19:22:38.774Z,-1.40
2023-02-06T19:25:10.234Z,-1.40
2023-02-06T19:27:38.524Z,-1.40
2023-02-06T19:30:07.863Z,-1.50
2023-02-06T19:32:35.124Z,-1.50
2023-02-06T19:35:03.298Z,-1.50
2023-02-06T19:37:30.000Z,-1.50
2023-02-06T19:39:56.681Z,-1.50
2023-02-06T19:42:23.347Z,-1.60
2023-02-06T19:44:54.255Z,-1.60
2023-02-06T19:47:21.618Z,-1.60
2023-02-06T19:49:52.704Z,-1.60
2023-02-06T19:52:20.076Z,-1.60
2023-02-06T19:54:47.636Z,-1.70
2023-02-06T19:57:14.916Z,-1.70
2023-02-06T19:59:42.032Z,-1.70
2023-02-06T20:02:12.952Z,-1.70
2023-02-06T20:04:39.823Z,-1.80
2023-02-06T20:07:06.617Z,-1.80
2023-02-06T20:09:34.210Z,-1.80
2023-02-06T20:12:00.983Z,-1.80
2023-02-06T20:14:28.036Z,-1.90
2023-02-06T20:16:55.027Z,-1.90
2023-02-06T20:19:26.865Z,-1.90
2023-02-06T20:21:59.400Z,-2.00
2023-02-06T20:24:30.377Z,-2.00
2023-02-06T20:27:01.098Z,-2.00
2023-02-06T20:29:38.188Z,-2.10
2023-02-06T20:32:06.050Z,-2.10
2023-02-06T20:34:33.511Z,-2.10
2023-02-06T20:37:00.446Z,-2.10
2023-02-06T20:39:27.567Z,-2.10
2023-02-06T20:41:54.553Z,-2.10
2023-02-06T20:44:21.679Z,-2.10
2023-02-06T20:46:48.602Z,-2.10
2023-02-06T20:49:21.171Z,-2.10
2023-02-06T20:51:49.310Z,-2.10
2023-02-06T20:54:16.755Z,-2.10
2023-02-06T20:56:43.567Z,-2.10
2023-02-06T20:59:14.620Z,-2.10
2023-02-06T21:01:41.741Z,-2.10
2023-02-06T21:04:10.173Z,-2.10
2023-02-06T21:06:38.177Z,-2.20
2023-02-06T21:09:07.443Z,-2.20
2023-02-06T21:11:44.165Z,-2.30
2023-02-06T21:14:11.983Z,-2.30
2023-02-06T21:16:39.298Z,-2.30
2023-02-06T21:19:08.416Z,-2.20
2023-02-06T21:21:35.693Z,-2.20
2023-02-06T21:24:02.886Z,-2.10
2023-02-06T21:26:29.923Z,-2.10
2023-02-06T21:28:58.223Z,-2.10
2023-02-06T21:31:36.017Z,-2.10
2023-02-06T21:34:15.321Z,-2.10
2023-02-06T21:36:42.918Z,-2.10
2023-02-06T21:39:11.565Z,-2.00
2023-02-06T21:41:38.293Z,-2.00
2023-02-06T21:44:05.178Z,-2.00
2023-02-06T21:46:32.070Z,-2.00
2023-02-06T21:48:58.952Z,-2.00
2023-02-06T21:51:26.099Z,-2.10
2023-02-06T21:53:52.843Z,-2.10
2023-02-06T21:56:22.981Z,-2.20
2023-02-06T21:58:50.042Z,-2.20
2023-02-06T22:01:20.050Z,-2.20
2023-02-06T22:03:47.151Z,-2.30
2023-02-06T22:06:15.039Z,-2.30
2023-02-06T22:08:44.282Z,-2.30
2023-02-06T22:11:13.557Z,-2.40
2023-02-06T22:13:40.842Z,-2.40
2023-02-06T22:16:09.138Z,-2.40
2023-02-06T22:18:36.551Z,-2.50
2023-02-06T22:21:12.379Z,-2.50
2023-02-06T22:23:40.092Z,-2.50
2023-02-06T22:26:08.919Z,-2.60
2023-02-06T22:28:35.770Z,-2.60
2023-02-06T22:31:13.510Z,-2.60
2023-02-06T22:33:40.744Z,-2.60
2023-02-06T22:36:09.820Z,-2.60
2023-02-06T22:38:37.578Z,-2.70
2023-02-06T22:41:07.318Z,-2.70
2023-02-06T22:43:36.438Z,-2.70
2023-02-06T22:46:03.525Z,-2.70
2023-02-06T22:48:30.576Z,-2.80
2023-02-06T22:51:07.348Z,-2.80
2023-02-06T22:53:35.157Z,-2.80
2023-02-06T22:56:25.540Z,-2.80
2023-02-06T22:58:56.621Z,-2.90
2023-02-06T23:01:25.989Z,-2.90
2023-02-06T23:03:54.407Z,-2.90
2023-02-06T23:06:21.439Z,-2.90
2023-02-06T23:08:48.139Z,-2.90
2023-02-06T23:11:15.833Z,-2.90
2023-02-06T23:13:43.228Z,-2.90
2023-02-06T23:16:10.337Z,-2.80
2023-02-06T23:18:37.440Z,-2.80
2023-02-06T23:21:07.442Z,-2.70
2023-02-06T23:23:34.513Z,-2.60
2023-02-06T23:26:01.309Z,-2.50
2023-02-06T23:28:28.454Z,-2.50
2023-02-06T23:30:55.276Z,-2.50
2023-02-06T23:33:22.715Z,-2.40
2023-02-06T23:35:49.930Z,-2.40
2023-02-06T23:38:18.282Z,-2.40
2023-02-06T23:40:45.877Z,-2.40
2023-02-06T23:43:12.698Z,-2.40
2023-02-06T23:45:41.209Z,-2.40
2023-02-06T23:48:08.027Z,-2.40
2023-02-06T23:50:35.523Z,-2.40
2023-02-06T23:53:02.242Z,-2.40
2023-02-06T23:55:30.425Z,-2.40
2023-02-06T23:57:57.451Z,-2.40
